createdAt,value
2019-06-07T00:01:58.328Z,3.22
2019-06-07T00:04:28.705Z,4.00
2019-06-07T00:06:59.095Z,2.92
2019-06-07T00:09:29.473Z,3.35
2019-06-07T00:11:59.861Z,3.35
2019-06-07T00:14:30.234Z,3.25
2019-06-07T00:17:00.646Z,4.42
2019-06-07T00:19:31.025Z,4.03
2019-06-07T00:22:30.134Z,4.20
2019-06-07T00:24:33.487Z,3.70
2019-06-07T00:27:03.877Z,4.33
2019-06-07T00:29:34.260Z,4.17
2019-06-07T00:32:04.647Z,4.25
2019-06-07T00:34:35.020Z,4.10
2019-06-07T00:37:05.411Z,3.70
2019-06-07T00:39:35.784Z,4.03
2019-06-07T00:42:06.491Z,4.47
2019-06-07T00:44:36.868Z,4.08
2019-06-07T00:47:07.252Z,3.77
2019-06-07T00:49:41.537Z,3.87
2019-06-07T00:52:09.708Z,3.65
2019-06-07T00:54:40.086Z,3.90
2019-06-07T00:57:12.264Z,3.70
2019-06-07T00:59:42.600Z,3.58
2019-06-07T01:02:14.571Z,3.92
2019-06-07T01:04:45.067Z,4.03
2019-06-07T01:07:17.410Z,4.75
2019-06-07T01:09:47.606Z,4.12
2019-06-07T01:12:19.439Z,4.62
2019-06-07T01:14:50.049Z,4.50
2019-06-07T01:17:41.162Z,4.30
2019-06-07T01:19:59.578Z,4.78
2019-06-07T01:22:30.126Z,4.30
2019-06-07T01:25:00.488Z,4.00
2019-06-07T01:27:31.094Z,4.35
2019-06-07T01:30:01.483Z,4.55
2019-06-07T01:32:32.319Z,4.90
2019-06-07T01:35:02.701Z,4.62
2019-06-07T01:37:33.157Z,4.85
2019-06-07T01:40:07.784Z,4.45
2019-06-07T01:42:38.169Z,4.75
2019-06-07T01:45:11.900Z,4.70
2019-06-07T01:47:42.310Z,5.15
2019-06-07T01:50:12.988Z,4.80
2019-06-07T01:52:44.448Z,5.55
2019-06-07T01:55:15.629Z,5.45
2019-06-07T01:57:48.581Z,4.70
2019-06-07T02:00:21.596Z,5.05
2019-06-07T02:02:50.950Z,5.80
2019-06-07T02:05:23.198Z,5.03
2019-06-07T02:07:53.559Z,6.15
2019-06-07T02:10:26.178Z,5.87
2019-06-07T02:12:56.193Z,5.60
2019-06-07T02:15:30.711Z,5.83
2019-06-07T02:17:58.714Z,6.65
2019-06-07T02:20:31.878Z,6.05
2019-06-07T02:23:01.249Z,6.37
2019-06-07T02:25:42.891Z,5.78
2019-06-07T02:28:26.727Z,6.37
2019-06-07T02:30:44.078Z,6.35
2019-06-07T02:33:08.098Z,6.20
2019-06-07T02:35:40.470Z,6.92
2019-06-07T02:38:10.695Z,6.45
2019-06-07T02:40:41.039Z,6.60
2019-06-07T02:43:11.438Z,6.70
2019-06-07T02:45:43.246Z,7.05
2019-06-07T02:48:13.904Z,6.83
2019-06-07T02:50:44.351Z,7.25
2019-06-07T02:53:14.752Z,7.05
2019-06-07T02:56:33.931Z,6.67
2019-06-07T02:58:17.235Z,7.20
2019-06-07T03:01:09.016Z,6.75
2019-06-07T03:03:22.670Z,6.65
2019-06-07T03:05:53.162Z,7.35
2019-06-07T03:08:23.615Z,6.53
2019-06-07T03:10:53.992Z,7.45
2019-06-07T03:13:28.462Z,7.65
2019-06-07T03:15:58.285Z,8.00
2019-06-07T03:18:46.682Z,8.03
2019-06-07T03:21:22.839Z,7.62
2019-06-07T03:23:56.926Z,7.62
2019-06-07T03:26:30.425Z,8.23
2019-06-07T03:29:00.852Z,8.95
2019-06-07T03:31:39.502Z,7.75
2019-06-07T03:34:03.336Z,8.50
2019-06-07T03:36:35.371Z,8.25
2019-06-07T03:39:07.392Z,7.72
2019-06-07T03:41:50.274Z,9.25
2019-06-07T03:44:09.878Z,9.13
2019-06-07T03:46:41.579Z,8.50
2019-06-07T03:49:12.477Z,8.38
2019-06-07T03:51:42.920Z,8.20
2019-06-07T03:54:13.329Z,8.78
2019-06-07T03:56:43.708Z,8.18
2019-06-07T03:59:14.107Z,8.60
2019-06-07T04:01:44.480Z,8.13
2019-06-07T04:04:14.878Z,9.53
2019-06-07T04:06:45.257Z,8.78
2019-06-07T04:09:15.660Z,9.78
2019-06-07T04:11:46.035Z,8.95
2019-06-07T04:14:16.534Z,8.85
2019-06-07T04:16:46.916Z,9.05
2019-06-07T04:19:17.312Z,9.30
2019-06-07T04:21:47.772Z,9.33
2019-06-07T04:24:18.154Z,8.95
2019-06-07T04:26:48.564Z,8.33
2019-06-07T04:30:02.321Z,9.43
2019-06-07T04:31:51.026Z,8.85
2019-06-07T04:34:21.397Z,8.60
2019-06-07T04:36:58.948Z,8.38
2019-06-07T04:39:26.396Z,8.35
2019-06-07T04:41:58.840Z,8.55
2019-06-07T04:44:29.356Z,8.50
2019-06-07T04:47:02.269Z,8.18
2019-06-07T04:49:38.139Z,7.87
2019-06-07T04:52:07.600Z,7.85
2019-06-07T04:54:45.605Z,8.53
2019-06-07T04:57:11.139Z,8.75
2019-06-07T05:00:11.144Z,7.95
2019-06-07T05:02:13.608Z,8.33
2019-06-07T05:04:44.165Z,8.18
2019-06-07T05:07:14.624Z,8.33
2019-06-07T05:09:45.016Z,7.67
2019-06-07T05:12:15.415Z,7.05
2019-06-07T05:14:45.793Z,7.40
2019-06-07T05:17:16.285Z,7.00
2019-06-07T05:19:46.665Z,7.80
2019-06-07T05:22:17.039Z,7.22
2019-06-07T05:24:47.412Z,6.75
2019-06-07T05:27:17.977Z,7.30
2019-06-07T05:30:08.747Z,6.75
2019-06-07T05:32:20.844Z,7.05
2019-06-07T05:34:51.211Z,7.25
2019-06-07T05:37:21.597Z,7.10
2019-06-07T05:39:52.077Z,6.30
2019-06-07T05:42:22.433Z,6.45
2019-06-07T05:44:52.892Z,6.08
2019-06-07T05:47:23.273Z,6.45
2019-06-07T05:49:53.837Z,5.40
2019-06-07T05:52:24.235Z,5.42
2019-06-07T05:54:54.608Z,5.87
2019-06-07T05:57:25.016Z,5.33
2019-06-07T05:59:55.369Z,4.83
2019-06-07T06:02:25.787Z,4.67
2019-06-07T06:04:56.202Z,4.03
2019-06-07T06:07:26.576Z,4.33
2019-06-07T06:09:57.008Z,5.03
2019-06-07T06:12:35.341Z,4.33
2019-06-07T06:14:59.461Z,4.53
2019-06-07T06:17:29.867Z,4.12
2019-06-07T06:20:00.836Z,3.80
2019-06-07T06:22:31.186Z,3.87
2019-06-07T06:25:30.907Z,3.95
2019-06-07T06:30:11.674Z,4.15
2019-06-07T06:32:50.995Z,3.85
2019-06-07T06:35:14.873Z,3.95
2019-06-07T06:37:49.652Z,3.87
2019-06-07T06:40:17.733Z,3.40
2019-06-07T06:42:49.042Z,3.85
2019-06-07T06:45:21.115Z,4.12
2019-06-07T06:47:51.492Z,3.72
2019-06-07T06:50:22.223Z,3.77
2019-06-07T06:52:54.661Z,4.40
2019-06-07T06:55:26.194Z,3.62
2019-06-07T06:57:56.580Z,4.15
2019-06-07T07:00:53.892Z,4.22
2019-06-07T07:03:54.133Z,3.83
2019-06-07T07:05:54.439Z,3.95
2019-06-07T07:08:24.849Z,3.15
2019-06-07T07:10:55.465Z,3.20
2019-06-07T07:13:26.016Z,3.00
2019-06-07T07:15:58.345Z,3.00
2019-06-07T07:18:29.060Z,3.33
2019-06-07T07:20:59.447Z,2.45
2019-06-07T07:23:29.816Z,2.60
2019-06-07T07:26:00.567Z,2.80
2019-06-07T07:28:30.947Z,3.15
2019-06-07T07:31:01.508Z,2.52
2019-06-07T07:34:20.889Z,2.67
2019-06-07T07:36:18.969Z,2.70
2019-06-07T07:38:36.207Z,2.50
2019-06-07T07:41:14.548Z,2.15
2019-06-07T07:43:38.666Z,2.52
2019-06-07T07:46:28.639Z,2.15
2019-06-07T07:48:41.204Z,2.25
2019-06-07T07:51:11.619Z,2.42
2019-06-07T07:53:51.662Z,2.70
2019-06-07T07:56:14.073Z,2.17
2019-06-07T07:58:49.738Z,2.22
2019-06-07T08:01:16.566Z,2.10
2019-06-07T08:03:48.149Z,2.17
2019-06-07T08:06:18.507Z,2.35
2019-06-07T08:08:48.892Z,2.12
2019-06-07T08:11:19.274Z,2.67
2019-06-07T08:13:50.607Z,2.37
2019-06-07T08:16:21.005Z,2.72
2019-06-07T08:18:56.239Z,2.42
2019-06-07T08:21:26.705Z,2.60
2019-06-07T08:24:00.439Z,2.50
2019-06-07T08:26:27.660Z,2.40
2019-06-07T08:29:01.949Z,2.17
2019-06-07T08:31:30.159Z,1.90
2019-06-07T08:34:00.921Z,1.90
2019-06-07T08:36:41.803Z,2.37
2019-06-07T08:39:07.594Z,2.12
2019-06-07T08:41:37.735Z,2.70
2019-06-07T08:44:22.674Z,2.80
2019-06-07T08:46:40.414Z,2.35
2019-06-07T08:49:10.790Z,1.95
2019-06-07T08:51:41.186Z,2.25
2019-06-07T08:54:22.198Z,1.77
2019-06-07T08:56:43.734Z,2.02
2019-06-07T08:59:14.123Z,2.27
2019-06-07T09:01:44.526Z,2.02
2019-06-07T09:04:14.914Z,1.82
2019-06-07T09:09:17.438Z,1.80
2019-06-07T09:11:47.815Z,1.95
2019-06-07T09:14:18.193Z,1.95
2019-06-07T09:16:48.589Z,1.92
2019-06-07T09:19:18.964Z,1.87
2019-06-07T09:21:49.357Z,2.40
2019-06-07T09:24:19.732Z,1.77
2019-06-07T09:26:50.100Z,1.90
2019-06-07T09:29:20.906Z,2.05
2019-06-07T09:31:53.596Z,2.20
2019-06-07T09:34:23.525Z,2.25
2019-06-07T09:36:58.144Z,1.80
2019-06-07T09:39:26.873Z,1.80
2019-06-07T09:41:58.703Z,2.55
2019-06-07T09:44:29.329Z,2.37
2019-06-07T09:47:19.962Z,2.15
2019-06-07T09:49:33.604Z,2.27
2019-06-07T09:52:10.440Z,2.60
2019-06-07T09:55:06.118Z,2.05
2019-06-07T09:57:16.466Z,2.30
2019-06-07T09:59:41.518Z,3.00
2019-06-07T10:02:13.675Z,2.35
2019-06-07T10:04:43.981Z,2.50
2019-06-07T10:07:30.838Z,2.40
2019-06-07T10:12:20.144Z,2.12
2019-06-07T10:14:50.526Z,2.33
2019-06-07T10:17:20.942Z,2.40
2019-06-07T10:19:51.336Z,2.58
2019-06-07T10:22:21.757Z,2.33
2019-06-07T10:24:52.401Z,1.90
2019-06-07T10:27:22.783Z,1.90
2019-06-07T10:29:54.144Z,1.80
2019-06-07T10:32:24.521Z,1.80
2019-06-07T10:34:54.897Z,1.70
2019-06-07T10:37:25.310Z,1.90
2019-06-07T10:39:55.735Z,1.92
2019-06-07T10:42:26.128Z,2.02
2019-06-07T10:44:56.527Z,2.10
2019-06-07T10:47:26.986Z,1.82
2019-06-07T10:49:57.381Z,2.00
2019-06-07T10:52:27.775Z,1.77
2019-06-07T10:54:58.144Z,1.70
2019-06-07T10:57:28.521Z,1.90
2019-06-07T10:59:58.899Z,1.98
2019-06-07T11:02:29.288Z,1.67
2019-06-07T11:04:59.681Z,1.70
2019-06-07T11:07:30.054Z,1.70
2019-06-07T11:10:07.329Z,1.82
2019-06-07T11:12:32.610Z,2.02
2019-06-07T11:15:04.453Z,1.60
2019-06-07T11:17:34.959Z,1.90
2019-06-07T11:20:08.225Z,1.95
2019-06-07T11:22:38.779Z,1.80
2019-06-07T11:25:11.140Z,1.77
2019-06-07T11:27:42.244Z,1.98
2019-06-07T11:30:15.598Z,2.00
2019-06-07T11:32:45.984Z,1.85
2019-06-07T11:35:16.834Z,2.00
2019-06-07T11:37:47.177Z,1.72
2019-06-07T11:40:36.064Z,1.70
2019-06-07T11:42:52.872Z,2.08
2019-06-07T11:45:23.320Z,2.10
2019-06-07T11:47:53.702Z,1.87
2019-06-07T11:50:24.279Z,1.85
2019-06-07T11:52:54.654Z,1.60
2019-06-07T11:55:25.040Z,2.00
2019-06-07T11:57:55.474Z,2.00
2019-06-07T12:00:26.093Z,2.08
2019-06-07T12:02:56.463Z,2.10
2019-06-07T12:05:26.872Z,2.05
2019-06-07T12:07:57.313Z,1.52
2019-06-07T12:10:34.315Z,1.90
2019-06-07T12:12:59.699Z,1.77
2019-06-07T12:15:30.074Z,2.05
2019-06-07T12:18:00.505Z,2.02
2019-06-07T12:20:30.839Z,2.70
2019-06-07T12:23:01.229Z,2.65
2019-06-07T12:25:31.597Z,2.25
2019-06-07T12:28:02.011Z,1.67
2019-06-07T12:30:32.382Z,1.98
2019-06-07T12:33:02.784Z,1.85
2019-06-07T12:35:33.169Z,1.90
2019-06-07T12:38:03.560Z,1.42
2019-06-07T12:40:33.927Z,1.55
2019-06-07T12:43:04.745Z,2.50
2019-06-07T12:45:44.323Z,1.72
2019-06-07T12:48:07.349Z,2.98
2019-06-07T12:50:43.150Z,2.33
2019-06-07T12:53:10.047Z,2.00
2019-06-07T12:55:40.423Z,2.35
2019-06-07T12:58:10.887Z,2.37
2019-06-07T13:00:41.344Z,1.72
2019-06-07T13:03:11.722Z,1.65
2019-06-07T13:05:42.101Z,1.90
2019-06-07T13:08:12.491Z,2.50
2019-06-07T13:10:42.883Z,1.77
2019-06-07T13:13:13.275Z,1.70
2019-06-07T13:15:43.663Z,1.85
2019-06-07T13:18:15.616Z,1.52
2019-06-07T13:20:46.497Z,1.80
2019-06-07T13:23:18.803Z,2.10
2019-06-07T13:25:48.982Z,1.80
2019-06-07T13:28:20.765Z,1.62
2019-06-07T13:30:51.328Z,1.60
2019-06-07T13:33:23.306Z,1.57
2019-06-07T13:35:53.786Z,1.50
2019-06-07T13:38:28.904Z,1.85
2019-06-07T13:40:59.253Z,1.90
2019-06-07T13:43:29.640Z,1.85
2019-06-07T13:46:00.017Z,1.70
2019-06-07T13:48:30.409Z,1.60
2019-06-07T13:51:00.788Z,1.42
2019-06-07T13:53:31.240Z,1.42
2019-06-07T13:56:01.614Z,1.50
2019-06-07T13:58:32.024Z,1.57
2019-06-07T14:01:02.412Z,1.47
2019-06-07T14:03:34.039Z,1.50
2019-06-07T14:06:05.774Z,1.50
2019-06-07T14:08:36.190Z,1.60
2019-06-07T14:11:06.617Z,1.70
2019-06-07T14:13:37.285Z,1.62
2019-06-07T14:16:07.716Z,1.42
2019-06-07T14:18:38.061Z,1.42
2019-06-07T14:21:09.410Z,1.17
2019-06-07T14:23:48.879Z,1.50
2019-06-07T14:26:11.905Z,1.30
2019-06-07T14:28:42.332Z,1.45
2019-06-07T14:31:12.693Z,1.50
2019-06-07T14:33:43.106Z,1.55
2019-06-07T14:36:13.465Z,1.30
2019-06-07T14:38:43.858Z,1.60
2019-06-07T14:41:14.231Z,1.45
2019-06-07T14:43:44.937Z,1.35
2019-06-07T14:46:15.458Z,1.05
2019-06-07T14:48:45.858Z,1.30
2019-06-07T14:51:16.262Z,1.80
2019-06-07T14:53:46.656Z,1.62
2019-06-07T14:56:17.029Z,1.22
2019-06-07T14:58:47.431Z,1.35
2019-06-07T15:01:17.818Z,1.62
2019-06-07T15:03:48.188Z,1.90
2019-06-07T15:06:18.596Z,1.82
2019-06-07T15:08:51.446Z,1.52
2019-06-07T15:11:21.072Z,1.65
2019-06-07T15:13:51.460Z,1.60
2019-06-07T15:16:22.914Z,1.62
2019-06-07T15:18:53.310Z,1.90
2019-06-07T15:21:23.696Z,1.87
2019-06-07T15:23:54.083Z,1.87
2019-06-07T15:26:24.490Z,1.98
2019-06-07T15:28:54.902Z,2.12
2019-06-07T15:31:25.273Z,2.17
2019-06-07T15:33:55.675Z,2.02
2019-06-07T15:36:26.072Z,1.60
2019-06-07T15:38:56.506Z,1.80
2019-06-07T15:41:26.880Z,1.87
2019-06-07T15:43:57.261Z,1.50
2019-06-07T15:46:29.456Z,1.47
2019-06-07T15:48:59.904Z,1.42
2019-06-07T15:51:30.627Z,1.50
2019-06-07T15:54:01.257Z,1.60
2019-06-07T15:56:32.587Z,1.62
2019-06-07T15:59:03.065Z,1.72
2019-06-07T16:01:33.560Z,1.75
2019-06-07T16:04:05.701Z,1.87
2019-06-07T16:06:36.345Z,1.90
2019-06-07T16:09:08.705Z,1.60
2019-06-07T16:11:41.455Z,1.52
2019-06-07T16:14:12.426Z,1.40
2019-06-07T16:16:43.455Z,1.37
2019-06-07T16:19:13.973Z,1.07
2019-06-07T16:21:44.409Z,1.30
2019-06-07T16:24:14.796Z,1.27
2019-06-07T16:26:45.342Z,1.50
2019-06-07T16:29:15.740Z,0.90
2019-06-07T16:31:46.117Z,1.20
2019-06-07T16:34:16.593Z,1.12
2019-06-07T16:36:47.035Z,1.00
2019-06-07T16:39:18.737Z,0.90
2019-06-07T16:41:49.115Z,0.95
2019-06-07T16:44:19.498Z,1.10
2019-06-07T16:46:49.893Z,0.90
2019-06-07T16:49:20.443Z,0.98
2019-06-07T16:51:50.812Z,1.02
2019-06-07T16:54:21.213Z,0.90
2019-06-07T16:56:51.580Z,0.85
2019-06-07T16:59:21.997Z,0.75
2019-06-07T17:01:52.374Z,0.80
2019-06-07T17:04:22.793Z,0.70
2019-06-07T17:06:53.162Z,0.80
2019-06-07T17:09:23.570Z,0.90
2019-06-07T17:11:53.937Z,0.90
2019-06-07T17:14:24.333Z,0.82
2019-06-07T17:16:54.708Z,0.88
2019-06-07T17:19:25.117Z,1.00
2019-06-07T17:21:55.501Z,0.88
2019-06-07T17:24:26.885Z,0.90
2019-06-07T17:26:57.340Z,0.70
2019-06-07T17:29:27.734Z,0.78
2019-06-07T17:31:58.102Z,0.60
2019-06-07T17:34:28.515Z,0.57
2019-06-07T17:36:58.913Z,0.70
2019-06-07T17:39:29.276Z,0.70
2019-06-07T17:42:02.337Z,0.72
2019-06-07T17:44:32.006Z,0.75
2019-06-07T17:47:02.381Z,0.50
2019-06-07T17:49:32.784Z,0.62
2019-06-07T17:52:03.165Z,0.70
2019-06-07T17:54:33.572Z,0.88
2019-06-07T17:57:03.954Z,0.60
2019-06-07T17:59:34.383Z,0.55
2019-06-07T18:02:14.089Z,0.60
2019-06-07T18:04:37.015Z,0.50
2019-06-07T18:07:08.839Z,0.60
2019-06-07T18:09:40.905Z,0.50
2019-06-07T18:12:11.282Z,0.50
2019-06-07T18:14:41.754Z,0.60
2019-06-07T18:17:12.123Z,0.62
2019-06-07T18:19:42.518Z,0.55
2019-06-07T18:22:12.887Z,0.50
2019-06-07T18:24:43.280Z,0.60
2019-06-07T18:27:13.649Z,0.55
2019-06-07T18:29:44.051Z,0.40
2019-06-07T18:32:14.433Z,0.50
2019-06-07T18:34:44.853Z,0.30
2019-06-07T18:37:15.296Z,0.55
2019-06-07T18:39:46.933Z,0.50
2019-06-07T18:42:17.347Z,0.72
2019-06-07T18:44:48.981Z,0.42
2019-06-07T18:47:19.385Z,0.40
2019-06-07T18:49:49.797Z,0.40
2019-06-07T18:52:24.456Z,0.50
2019-06-07T18:54:55.130Z,0.55
2019-06-07T18:57:25.527Z,0.50
2019-06-07T18:59:56.577Z,0.40
2019-06-07T19:02:27.087Z,0.40
2019-06-07T19:04:58.391Z,0.42
2019-06-07T19:07:28.837Z,0.70
2019-06-07T19:09:59.463Z,0.75
2019-06-07T19:12:29.845Z,0.40
2019-06-07T19:15:00.226Z,0.62
2019-06-07T19:17:30.597Z,0.37
2019-06-07T19:20:00.989Z,0.60
2019-06-07T19:22:31.359Z,0.37
2019-06-07T19:25:01.784Z,0.57
2019-06-07T19:27:33.137Z,0.50
2019-06-07T19:30:05.198Z,0.53
2019-06-07T19:32:35.568Z,0.62
2019-06-07T19:35:08.574Z,0.45
2019-06-07T19:37:38.941Z,0.55
2019-06-07T19:40:10.454Z,0.60
2019-06-07T19:42:40.839Z,0.55
2019-06-07T19:45:30.804Z,0.50
2019-06-07T19:47:44.486Z,0.50
2019-06-07T19:50:16.186Z,0.57
2019-06-07T19:52:46.560Z,0.57
2019-06-07T19:55:20.730Z,0.90
2019-06-07T19:57:51.345Z,0.50
2019-06-07T20:00:21.975Z,0.60
2019-06-07T20:02:53.635Z,0.55
2019-06-07T20:05:24.035Z,0.50
2019-06-07T20:07:54.551Z,0.72
2019-06-07T20:10:24.979Z,0.60
2019-06-07T20:12:56.575Z,0.68
2019-06-07T20:15:29.446Z,0.60
2019-06-07T20:18:01.170Z,0.60
2019-06-07T20:20:31.698Z,0.80
2019-06-07T20:23:03.053Z,0.60
2019-06-07T20:25:33.520Z,0.40
2019-06-07T20:28:05.415Z,0.50
2019-06-07T20:30:36.949Z,0.60
2019-06-07T20:33:08.190Z,0.70
2019-06-07T20:35:38.693Z,0.55
2019-06-07T20:38:09.514Z,0.50
2019-06-07T20:40:39.976Z,1.25
2019-06-07T20:43:10.355Z,0.53
2019-06-07T20:45:40.815Z,0.50
2019-06-07T20:48:11.207Z,0.80
2019-06-07T20:50:41.615Z,0.60
2019-06-07T20:53:11.986Z,0.50
2019-06-07T20:55:42.382Z,0.42
2019-06-07T20:58:12.754Z,0.50
2019-06-07T21:00:43.149Z,0.50
2019-06-07T21:03:13.528Z,0.60
2019-06-07T21:05:44.022Z,0.50
2019-06-07T21:08:14.406Z,0.50
2019-06-07T21:10:44.792Z,0.47
2019-06-07T21:13:15.168Z,0.68
2019-06-07T21:15:49.206Z,0.50
2019-06-07T21:18:19.982Z,0.60
2019-06-07T21:20:50.131Z,0.55
2019-06-07T21:23:21.472Z,0.50
2019-06-07T21:25:51.881Z,0.60
2019-06-07T21:28:22.254Z,0.60
2019-06-07T21:30:52.652Z,0.40
2019-06-07T21:33:23.022Z,0.47
2019-06-07T21:35:53.495Z,0.62
2019-06-07T21:38:23.872Z,0.40
2019-06-07T21:40:54.262Z,0.60
2019-06-07T21:43:24.635Z,0.50
2019-06-07T21:46:04.818Z,0.98
2019-06-07T21:48:27.114Z,0.88
2019-06-07T21:50:57.534Z,0.70
2019-06-07T21:53:28.227Z,0.70
2019-06-07T21:55:58.629Z,0.60
2019-06-07T21:58:29.001Z,0.60
2019-06-07T22:01:10.071Z,0.40
2019-06-07T22:03:43.869Z,0.60
2019-06-07T22:06:14.366Z,0.60
2019-06-07T22:08:44.783Z,0.50
2019-06-07T22:11:15.207Z,0.50
2019-06-07T22:13:45.590Z,0.60
2019-06-07T22:16:26.591Z,0.47
2019-06-07T22:18:48.060Z,0.70
2019-06-07T22:21:18.468Z,0.72
2019-06-07T22:23:48.856Z,0.82
2019-06-07T22:26:20.312Z,0.60
2019-06-07T22:28:50.683Z,0.45
2019-06-07T22:31:21.099Z,0.50
2019-06-07T22:33:51.482Z,0.50
2019-06-07T22:36:21.874Z,0.55
2019-06-07T22:38:52.265Z,0.70
2019-06-07T22:41:24.358Z,0.45
2019-06-07T22:43:54.735Z,0.60
2019-06-07T22:46:36.958Z,0.40
2019-06-07T22:48:57.551Z,0.57
2019-06-07T22:51:27.950Z,0.40
2019-06-07T22:53:58.321Z,0.60
2019-06-07T22:56:30.363Z,0.78
2019-06-07T22:59:00.729Z,0.60
2019-06-07T23:01:31.117Z,0.40
2019-06-07T23:04:02.466Z,0.40
2019-06-07T23:06:32.864Z,0.60
2019-06-07T23:09:03.519Z,0.42
2019-06-07T23:11:35.133Z,0.50
2019-06-07T23:14:05.640Z,0.40
2019-06-07T23:16:51.602Z,0.60
2019-06-07T23:19:08.108Z,0.55
2019-06-07T23:21:38.667Z,0.53
2019-06-07T23:24:09.817Z,0.50
2019-06-07T23:26:40.197Z,0.60
2019-06-07T23:29:10.563Z,0.40
2019-06-07T23:31:40.969Z,0.57
2019-06-07T23:34:12.920Z,0.50
2019-06-07T23:36:43.386Z,0.50
2019-06-07T23:39:15.286Z,0.60
2019-06-07T23:41:45.830Z,0.50
2019-06-07T23:44:17.195Z,0.60
2019-06-07T23:46:47.750Z,0.55
2019-06-07T23:49:18.115Z,0.40
2019-06-07T23:51:48.521Z,0.70
2019-06-07T23:54:19.909Z,0.50
2019-06-07T23:56:50.480Z,0.55
2019-06-07T23:59:20.870Z,0.40
